Airfield :
LOGIN :

Register | Disclaimer

   EN    FR    IT 

 










Legend :    VFR   Marginal VFR   IFR   Intensive IFR   Very Intensive IFR
Visi :
Ceiling :
>= 8 km
>= 3000ft
5 to 8 km
1000 to 3000 ft
1500m to 5 km
500 to 1000 ft
800 to 1500m
200 to 500 ft
< 800m
< 200 ft
Symbols :   Thunderstorms  Fog  Heavy snow  Heavy precipitations  Wind > 20 kt
SIGMETs :     Misc.  Thunderstorms  Icing  Turbulence  Mountain Waves  Volcanic Ashes






- Airport Elevation : 511 ft
- IATA code : LHA


EDTL - Lahr Schwarzwald

CURRENT METAR :
  • 251650Z 24004KT 210V270 9999 FEW006 SCT023 BKN039 01/01 Q1009

EXPIRED METARs :
  • 251620Z 24005KT 9999 -RASN FEW007 BKN025 BKN033 01/00 Q1009
  • 251550Z 27006KT 9999 -RASN FEW020 BKN033 01/00 Q1008
  • 251520Z 25008KT 9999 -RA FEW019 BKN033 OVC045 03/M01 Q1007
  • 251450Z 24007KT 9999 BKN044 OVC057 03/M01 Q1007
  • 251420Z 24008KT 9999 FEW034 BKN048 BKN057 03/M01 Q1006

TAF TAF EDTL
Valid from the 25 at 15:00 until the 26 at 00:00 UTC


251400Z 2515/2524 24007KT 9999 FEW006 BKN020
PROB30
TEMPO 2515/2521 4000 -SHRASN BKN010CB



MET'MAP, your aeronautical weather chart ! - Copyright ORBIFLY December 2007 - Disclaimer

ORBIFLY MET'MAP TEAM :

Programming & Development : Alexandra Zaïnal
Concept & original design : Baudouin d'Aumeries
Assistance for programming : Marc-Olivier Méhu
Technical & hardware support : Manuel Goepfert

Contact : metmap@orbifly.com




SOURCES & CREDITS :

   NOAA